Latest METARs, TAFs and NOTAMs for LCLK


---------------------------------------------------------------------------
	(OBSERVATIONS)
LCLK 240930Z 10015KT CAVOK 19/14 Q1008 NOSIG=
LCLK 240900Z 09017KT CAVOK 19/13 Q1009 NOSIG=
LCLK 240830Z 09017KT CAVOK 18/13 Q1009 NOSIG=
LCLK 240800Z 09017KT CAVOK 18/12 Q1009 NOSIG=
LCLK 240730Z 08017KT CAVOK 18/12 Q1009 NOSIG=
LCLK 240700Z 09017KT CAVOK 17/12 Q1010 NOSIG=
---------------------------------------------------------------------------
	(FC)
Sorry, FC For LCLK Not Found
---------------------------------------------------------------------------
	(TERMINAL AREA FORECAST)
LCLK 240530Z 2406/2506 06013KT 9999 FEW025
    PROB40 2406/2506 5000 DU
    BECMG 2407/2410 13016KT
    BECMG 2411/2414 21018KT
    BECMG 2417/2421 23008KT=
---------------------------------------------------------------------------
	(NOTAMS)


LCLK A0059/19 TWY C CLOSED FROM INTERMEDIATE HOLDING POSITION
    C2 UNTIL C3 DUE TO WIP. 21 JAN 05:30 2019 UNTIL 28 JAN 05:30
    2019. CREATED: 16 JAN 08:59 2019

LCLK A0082/19 INTL VFR FLIGHTS ARRIVING/DEPARTING LCPH ARE NOT
    PERMITTED TO ENTER LCLK CONTROL ZONE. PILOTS ARE REQUESTED
    TO FILE FLIGHT PLANS VIA POINT APLON. 22 JAN 12:17 2019 UNTIL
    22 APR 10:00 2019 ESTIMATED. CREATED: 22 JAN 12:19 2019

LCLK A0110/12 NEW HELIPAD FOR CYPRUS POLICE USE ONLY ESTABLISHED
    250 METERS NORTH OF THE ATC TOWER ENCLOSED BY THE FOLLOWING
    COORDINATES: 3452.502N03337.012E 3452.528N03337.013E 3452.518N03337.185E
    3452.465N03337.118E HOURS OF OPERATION: H24. 08 FEB 14:53
    2012 UNTIL PERM. CREATED: 08 FEB 15:02 2012

LCLK A0694/12 OBSTACLE ERECTED TYPE: ANTENNA COORDINATES: 345228.69N0333700.25E
    ELEVATION AT TOP: 39.5M AMSL MARKED AND LIGHTED (RED. 16
    AUG 18:42 2012 UNTIL PERM. CREATED: 16 AUG 18:46 2012

LCLK A0695/12 OBSTACLE ERECTED TYPE: WIND MEASUREMENT MAST COORDINATES:
    345227N 0333110E HEIGHT : 50M AGL ELAVATION AT TOP : 240M
    AMSL MARKED AND LIGHTED. 16 AUG 18:48 2012 UNTIL PERM. CREATED:
    16 AUG 18:50 2012

LCLK A0762/15 OBSTACLE ERECTED NAME: LC-0005CR TYPE: CRANE COORDINATES:
    345554.27N0333814.51E HEIGHT: 65.5M AGL ELEVATION AT TOP:
    71M AMSL MARKED AND LIGHTED. 24 JUN 07:35 2015 UNTIL PERM.
    CREATED: 24 JUN 07:40 2015

LCLK A0924/15 FOR FLIGHT PLANNING PURPOSES ALL ARRIVALS TO LCA
    ENTERING NICOSIA FIR VIA TOSKA, EVENO, TOMBI MUST ROUTE TO
    BONEK FOR THE BONEK1A ARRIVAL. ALL OTHER STARS AVAILABLE
    ONLY BY ATC. 31 JUL 00:01 2015 UNTIL PERM. CREATED: 30 JUL
    11:29 2015

LCLK A0938/18 A GROUP OF TWO (2) CRANES ERECTED AT LARNAKA PORT
    AT THE FOLLOWING POSITIONS: 345529.26N0333840.08E HEIGHT
    84M AT THE TOP 86.3M AMSL NOT LIGHTED 345525.08N0333830.27E
    HEIGHT 84M AT THE TOP 86.3M AMSL NOT LIGHTED. 20 JUN 11:03
    2018 UNTIL PERM. CREATED: 20 JUN 11:03 2018

LCLK A1180/14 OBSTACLE ERECTED TYPE: ANTENNA COORDINATES: 345330.64N0333816.55E
    HEIGHT:28.69M AGL ELEVATION AT TOP: 31.25M AMSL MARKED AND
    LIGHTED (RED. 13 NOV 05:00 2014 UNTIL PERM. CREATED: 11 NOV
    11:52 2014

LCLK A1197/14 FOR FLIGHT PLANNING PURPOSES ALL DEPARTURES LCA
    RWY22 EXITING NICOSIA FIR VIA TOSKA, EVENO, TOMBI MUST ROUTE:
    1. PAFOS 2B PHA DCT GENOS DCT TOSKA 2. PAFOS 2B PHA DCT GENOS
    DCT PEDER DCT EVENO 3. PAFOS 2B PHA DCT GENOS DCT PEDER A16/UA16
    TOMBI ALL OTHER SIDS ONLY AVAILABLE BY ATC. 13 NOV 13:58
    2014 UNTIL PERM. CREATED: 13 NOV 13:59 2014

LCLK A1359/18 RWY 22/04 CLOSED DUE TO WIP. THU 2300-FRI 0340,
    17 JAN 23:00 2019 UNTIL 08 MAR 03:40 2019. CREATED: 11 SEP
    08:47 2018

LCLK A1360/18 RWY 22/04 CLOSED DUE TO WIP. FRI 0350-0500, 18
    JAN 03:50 2019 UNTIL 08 MAR 05:00 2019. CREATED: 11 SEP 08:48
    2018

LCLK A1627/17 OBSTACLE ERECTED TYPE: CRANE COORDINATES: 345406.34N0333812.87E
    HEIGHT: 48M AGL ELEVATION AT TOP: 50M AMSL MARKED,LIGHTED.
    10 NOV 09:45 2017 UNTIL PERM. CREATED: 10 NOV 09:47 2017

---------------------------------------------------------------------------